首页
METAR-TAF:

METAR-TAF

机场 :

科羅爾, 巴伯尔道布岛, 帛琉

羅曼·莫圖國際機場

纬度: 07-22N, 经度: 134-32E, 海拔: 54米

当前天气观测

该预报发布于27分钟前的02:50 UTC
风速9节,风向,有时为18节阵风
温度 30°C
湿度 75%
气压 1007 hPa
能見度: 24.1公里
散云层高于1600英尺
多云层高于12000英尺
多云层高于30000英尺

METAR: PTRO 200250Z 09009G18KT 15SM SCT016 BKN120 BKN300 30/25 A2974

时间: 12:17 (03:17 UTC)

预报

该预报发布于1小时和37分钟前的01:40 UTC
预报有效从20日的 02点(UTC)到 20日的 24点(UTC)
风速11节,风向东转东北
能見度: 10公里
散云层高于1600英尺
散云层高于12000英尺
附近有阵雨

TAF: PTRO 200140Z 2002/2024 07011KT P6SM VCSH SCT016 SCT120

超过4000个机场的气象观测和天气预报(METAR&TAF报告)。

可查询的气象台以黄色和红色小点在地图上表示。

将鼠标移到小点上方,可查看气象台名称。

然后点击查看天气观测和预报。

如需切换地图:点击带黑十字的绿色按钮放大地图;点击带横线的绿色按钮缩小地图;或者点击绿色箭头查看邻近地区的地图。


METAR-TAF: